Terminal Aerodrome Forecast
Issued by NWS

Home | Current Version | Previous Version | Text Only | Print | Product List | Glossary On
Versions: 1 2 3 4 5 6 7 8 9 10 11 12 13 14
000
FTUS46 KLOX 242342
TAFBUR
TAF
KBUR 242342Z 2500/2524 20009KT P6SM SCT045
     FM250300 18006KT P6SM BKN040
     FM250800 16006KT P6SM OVC030
     FM251800 17008KT P6SM SCT030 OVC040
     FM252100 19010KT P6SM BKN050=

USA.gov is the U.S. government's official web portal to all federal, state and local government web resources and services.